Dersingham, United Kingdom
Current Conditions -  °F | °C
As of 8:50 PM on Thursday 20 Nov 2014 (Local Time) from EGYM Reporting Station
Haze Haze  
Wind Chill: 42°   Ceiling: 3200
Heat Index: 45°   Visibility: 2.5mi
Dew Point: 45°   Wind: 5mph
Humidity: 100%   Direction: 70°ENE
Pressure: 30.27"   Gusts: NA
Location:  52.85°N, 0.5°E
Report Text: EGYM 202050Z 07004KT 4000 BR BKN032 07/07 Q1025 GRN
Loading
Personal Weather Stations






























Interactive Weather Map New forecast layout! Learn more

10-Day Weather Forecast

Advertisements
Track Severe Weather on mobile